createdAt,value
2016-08-27T00:01:59.868Z,78.98
2016-08-27T00:02:59.176Z,78.4
2016-08-27T00:03:59.197Z,78.4
2016-08-27T00:04:59.239Z,78.3
2016-08-27T00:06:14.177Z,78.3
2016-08-27T00:06:59.291Z,78.98
2016-08-27T00:07:59.304Z,77.92
2016-08-27T00:08:59.330Z,78.11
2016-08-27T00:09:59.361Z,78.5
2016-08-27T00:10:59.392Z,78.21
2016-08-27T00:11:59.417Z,78.21
2016-08-27T00:12:59.444Z,78.21
2016-08-27T00:13:59.465Z,78.4
2016-08-27T00:14:59.495Z,79.84
2016-08-27T00:15:59.528Z,80.04
2016-08-27T00:16:59.554Z,79.55
2016-08-27T00:17:59.580Z,80.22
2016-08-27T00:18:59.601Z,80.32
2016-08-27T00:19:59.660Z,80.04
2016-08-27T00:20:59.659Z,79.65
2016-08-27T00:22:14.614Z,78.78
2016-08-27T00:23:59.740Z,78.5
2016-08-27T00:25:59.795Z,78.88
2016-08-27T00:26:59.815Z,79.46
2016-08-27T00:27:59.846Z,80.51
2016-08-27T00:28:59.872Z,80.51
2016-08-27T00:29:59.899Z,79.55
2016-08-27T00:30:59.925Z,78.3
2016-08-27T00:31:59.964Z,77.58
2016-08-27T00:32:59.986Z,77.58
2016-08-27T00:35:00.044Z,77.76
2016-08-27T00:36:00.062Z,77
2016-08-27T00:37:00.105Z,77
2016-08-27T00:38:15.038Z,75.94
2016-08-27T00:39:00.146Z,75.94
2016-08-27T00:40:00.165Z,75.65
2016-08-27T00:41:00.200Z,76.42
2016-08-27T00:42:00.219Z,75.31
2016-08-27T00:43:00.246Z,76.07
2016-08-27T00:44:00.294Z,76.26
2016-08-27T00:45:00.302Z,76.94
2016-08-27T00:46:00.327Z,76.94
2016-08-27T00:47:00.366Z,76.61
2016-08-27T00:48:00.386Z,76.42
2016-08-27T00:49:00.428Z,75.46
2016-08-27T00:50:00.437Z,76.84
2016-08-27T00:51:00.461Z,76.81
2016-08-27T00:52:00.551Z,76.71
2016-08-27T00:53:00.534Z,76.61
2016-08-27T00:54:15.474Z,76.23
2016-08-27T00:55:00.571Z,77.09
2016-08-27T00:56:00.609Z,76.9
2016-08-27T00:57:00.625Z,76.9
2016-08-27T00:58:00.661Z,77.19
2016-08-27T00:59:00.680Z,77.19
2016-08-27T01:00:00.704Z,77.38
2016-08-27T01:01:00.750Z,76.81
2016-08-27T01:02:00.760Z,76.61
2016-08-27T01:03:00.811Z,77.58
2016-08-27T01:04:00.816Z,77.86
2016-08-27T01:05:00.838Z,78.44
2016-08-27T01:06:00.869Z,78.53
2016-08-27T01:07:00.901Z,78.73
2016-08-27T01:08:00.920Z,79.11
2016-08-27T01:09:15.873Z,79.65
2016-08-27T01:10:00.993Z,79.84
2016-08-27T01:11:01.019Z,80.51
2016-08-27T01:12:01.029Z,80.71
2016-08-27T01:13:01.068Z,80.99
2016-08-27T01:14:01.082Z,80.51
2016-08-27T01:15:01.125Z,80.61
2016-08-27T01:16:01.140Z,80.61
2016-08-27T01:17:01.174Z,80.71
2016-08-27T01:18:01.208Z,81.09
2016-08-27T01:19:01.222Z,81.28
2016-08-27T01:20:01.245Z,81.38
2016-08-27T01:21:01.271Z,81.67
2016-08-27T01:22:01.314Z,81.76
2016-08-27T01:23:01.325Z,82.34
2016-08-27T01:24:01.369Z,82.05
2016-08-27T01:26:01.405Z,82.1
2016-08-27T01:27:01.435Z,81.92
2016-08-27T01:28:01.476Z,82.49
2016-08-27T01:29:01.487Z,82.2
2016-08-27T01:30:01.508Z,82.2
2016-08-27T01:31:01.537Z,82.3
2016-08-27T01:32:01.585Z,82.01
2016-08-27T01:33:01.591Z,82.01
2016-08-27T01:34:01.623Z,82.01
2016-08-27T01:35:01.643Z,83.07
2016-08-27T01:36:01.675Z,83.26
2016-08-27T01:37:01.700Z,83.64
2016-08-27T01:39:01.761Z,83.07
2016-08-27T01:40:01.777Z,82.3
2016-08-27T01:41:16.728Z,82.78
2016-08-27T01:42:01.849Z,82.97
2016-08-27T01:43:01.861Z,83.26
2016-08-27T01:44:01.885Z,83.07
2016-08-27T01:45:01.911Z,83.93
2016-08-27T01:46:01.956Z,84.03
2016-08-27T01:47:01.983Z,83.41
2016-08-27T01:48:02.008Z,83.93
2016-08-27T01:49:02.068Z,83.84
2016-08-27T01:50:02.044Z,84.08
2016-08-27T01:51:02.074Z,84.31
2016-08-27T01:52:02.149Z,84.08
2016-08-27T01:53:02.141Z,84.12
2016-08-27T01:54:02.162Z,84.18
2016-08-27T01:55:02.188Z,84.8
2016-08-27T01:56:02.222Z,84.75
2016-08-27T01:57:17.156Z,83.98
2016-08-27T01:58:02.276Z,84.27
2016-08-27T01:59:02.282Z,84.47
2016-08-27T02:00:02.326Z,85.04
2016-08-27T02:01:02.342Z,84.51
2016-08-27T02:02:02.360Z,85.62
2016-08-27T02:03:02.390Z,85.42
2016-08-27T02:04:02.428Z,86.19
2016-08-27T02:05:02.465Z,86.29
2016-08-27T02:06:02.477Z,86.29
2016-08-27T02:07:02.496Z,86.29
2016-08-27T02:08:02.521Z,86.48
2016-08-27T02:09:02.557Z,86.29
2016-08-27T02:11:02.614Z,86
2016-08-27T02:12:02.626Z,86.77
2016-08-27T02:13:17.584Z,86.63
2016-08-27T02:14:02.680Z,86.82
2016-08-27T02:15:02.713Z,87.11
2016-08-27T02:17:02.763Z,87.49
2016-08-27T02:18:02.796Z,87.98
2016-08-27T02:20:02.859Z,87.78
2016-08-27T02:21:02.865Z,87.49
2016-08-27T02:22:03.611Z,87.49
2016-08-27T02:23:02.923Z,87.98
2016-08-27T02:24:02.944Z,87.01
2016-08-27T02:25:02.976Z,87.01
2016-08-27T02:26:03.002Z,87.01
2016-08-27T02:27:03.027Z,87.3
2016-08-27T02:28:03.064Z,88.17
2016-08-27T02:29:18.008Z,87.98
2016-08-27T02:30:03.106Z,88.26
2016-08-27T02:31:03.136Z,87.49
2016-08-27T02:32:03.163Z,87.98
2016-08-27T02:33:03.183Z,87.59
2016-08-27T02:34:03.214Z,88.65
2016-08-27T02:36:03.321Z,87.3
2016-08-27T02:37:03.291Z,87.78
2016-08-27T02:38:03.321Z,87.4
2016-08-27T02:39:03.358Z,88.35
2016-08-27T02:40:03.368Z,88.84
2016-08-27T02:41:03.407Z,88.35
2016-08-27T02:42:03.424Z,88.74
2016-08-27T02:43:03.468Z,88.93
2016-08-27T02:44:18.402Z,88.93
2016-08-27T02:46:03.543Z,88.41
2016-08-27T02:47:03.552Z,88.79
2016-08-27T02:49:03.612Z,88.26
2016-08-27T02:50:03.632Z,86.92
2016-08-27T02:51:03.658Z,88.07
2016-08-27T02:52:03.735Z,88.35
2016-08-27T02:53:03.711Z,87.98
2016-08-27T02:54:03.735Z,87.59
2016-08-27T02:55:03.782Z,87.78
2016-08-27T02:56:03.802Z,87.11
2016-08-27T02:57:03.817Z,87.3
2016-08-27T02:58:03.855Z,86.82
2016-08-27T02:59:03.879Z,87.3
2016-08-27T03:02:03.959Z,88.22
2016-08-27T03:03:03.974Z,89.08
2016-08-27T03:04:04.002Z,88.51
2016-08-27T03:05:04.036Z,88.98
2016-08-27T03:06:04.058Z,89.08
2016-08-27T03:07:04.079Z,89.85
2016-08-27T03:08:04.107Z,89.85
2016-08-27T03:09:04.151Z,89.65
2016-08-27T03:10:04.157Z,88.7
2016-08-27T03:11:04.191Z,88.51
2016-08-27T03:12:04.224Z,88.12
2016-08-27T03:14:04.281Z,88.45
2016-08-27T03:15:04.291Z,87.59
2016-08-27T03:16:19.246Z,87.49
2016-08-27T03:17:04.342Z,88.35
2016-08-27T03:18:04.367Z,88.89
2016-08-27T03:19:04.393Z,89.47
2016-08-27T03:20:04.440Z,89.75
2016-08-27T03:21:04.447Z,89.47
2016-08-27T03:22:04.484Z,89.94
2016-08-27T03:23:04.501Z,89.56
2016-08-27T03:24:04.532Z,89.47
2016-08-27T03:25:04.551Z,89.85
2016-08-27T03:26:04.577Z,89.37
2016-08-27T03:27:04.611Z,89.85
2016-08-27T03:28:04.633Z,89.94
2016-08-27T03:29:04.661Z,89.47
2016-08-27T03:30:04.683Z,89.37
2016-08-27T03:31:04.712Z,89.56
2016-08-27T03:32:19.660Z,89.85
2016-08-27T03:33:04.767Z,89.56
2016-08-27T03:34:05.480Z,88.31
2016-08-27T03:35:04.820Z,88.7
2016-08-27T03:36:04.846Z,88.41
2016-08-27T03:37:04.868Z,87.98
2016-08-27T03:38:04.904Z,87.98
2016-08-27T03:39:04.938Z,89.18
2016-08-27T03:40:04.957Z,89.37
2016-08-27T03:41:04.980Z,89.37
2016-08-27T03:42:05.011Z,89.47
2016-08-27T03:43:05.022Z,89.75
2016-08-27T03:44:05.054Z,90.52
2016-08-27T03:45:05.088Z,90.14
2016-08-27T03:46:05.102Z,90.52
2016-08-27T03:47:05.140Z,90.81
2016-08-27T03:48:20.085Z,90.71
2016-08-27T03:49:05.184Z,90.23
2016-08-27T03:50:05.213Z,89.56
2016-08-27T03:51:05.238Z,90.14
2016-08-27T03:53:05.291Z,91.28
2016-08-27T03:54:05.332Z,91.57
2016-08-27T03:55:05.391Z,91.38
2016-08-27T03:56:05.380Z,92.2
2016-08-27T03:57:05.403Z,92.49
2016-08-27T03:58:05.428Z,91.72
2016-08-27T03:59:05.496Z,91.82
2016-08-27T04:01:05.514Z,91.38
2016-08-27T04:02:05.529Z,91.09
2016-08-27T04:03:05.556Z,91.53
2016-08-27T04:04:20.497Z,91.38
2016-08-27T04:06:05.628Z,91.67
2016-08-27T04:07:05.650Z,91.82
2016-08-27T04:08:05.698Z,91.63
2016-08-27T04:09:05.712Z,91.19
2016-08-27T04:10:05.730Z,90.67
2016-08-27T04:11:05.771Z,90.81
2016-08-27T04:12:05.787Z,90.52
2016-08-27T04:13:05.825Z,90.52
2016-08-27T04:14:05.832Z,90.14
2016-08-27T04:15:05.859Z,90.42
2016-08-27T04:16:05.888Z,90.71
2016-08-27T04:17:05.911Z,90.9
2016-08-27T04:18:05.943Z,91.53
2016-08-27T04:19:20.896Z,91.48
2016-08-27T04:20:06.008Z,92.1
2016-08-27T04:21:06.028Z,92.3
2016-08-27T04:22:06.040Z,91.96
2016-08-27T04:23:06.073Z,92.68
2016-08-27T04:24:06.098Z,92.2
2016-08-27T04:25:06.137Z,92.24
2016-08-27T04:26:06.149Z,91.34
2016-08-27T04:27:06.173Z,91.48
2016-08-27T04:28:06.198Z,91.86
2016-08-27T04:29:06.222Z,92.44
2016-08-27T04:30:06.255Z,92.15
2016-08-27T04:31:06.283Z,92.39
2016-08-27T04:32:06.301Z,92.54
2016-08-27T04:33:06.348Z,92.24
2016-08-27T04:34:06.373Z,93.01
2016-08-27T04:35:06.392Z,92.3
2016-08-27T04:36:06.413Z,92.1
2016-08-27T04:37:06.449Z,92.24
2016-08-27T04:38:06.459Z,92.34
2016-08-27T04:39:06.485Z,92.44
2016-08-27T04:40:06.526Z,91.86
2016-08-27T04:41:06.605Z,91.96
2016-08-27T04:42:06.568Z,91.86
2016-08-27T04:43:06.607Z,91.38
2016-08-27T04:44:06.617Z,92.05
2016-08-27T04:45:06.643Z,92.34
2016-08-27T04:46:06.669Z,91.57
2016-08-27T04:47:06.701Z,91.19
2016-08-27T04:48:06.726Z,91.33
2016-08-27T04:49:06.765Z,90.08
2016-08-27T04:50:06.780Z,88.02
2016-08-27T04:51:21.723Z,85.85
2016-08-27T04:52:06.840Z,84.74
2016-08-27T04:53:06.850Z,83.34
2016-08-27T04:54:06.879Z,81.46
2016-08-27T04:55:06.961Z,79.67
2016-08-27T04:56:06.945Z,78.03
2016-08-27T04:57:06.976Z,76.53
2016-08-27T04:58:06.991Z,75.42
2016-08-27T04:59:07.020Z,74.68
2016-08-27T05:00:07.045Z,72.66
2016-08-27T05:01:07.077Z,71.15
2016-08-27T05:02:07.109Z,69.49
2016-08-27T05:03:07.129Z,68.04
2016-08-27T05:04:07.220Z,67.2
2016-08-27T05:05:07.186Z,66.14
2016-08-27T05:06:07.220Z,65.59
2016-08-27T05:07:22.170Z,64.14
2016-08-27T05:08:07.287Z,64.08
2016-08-27T05:09:07.308Z,63.05
2016-08-27T05:10:07.337Z,62.47
2016-08-27T05:11:07.365Z,61.72
2016-08-27T05:12:07.398Z,61.63
2016-08-27T05:13:07.424Z,60.4
2016-08-27T05:14:07.459Z,60.57
2016-08-27T05:15:07.492Z,59.75
2016-08-27T05:16:07.517Z,58.69
2016-08-27T05:17:07.557Z,59.36
2016-08-27T05:18:07.582Z,60.69
2016-08-27T05:19:07.617Z,62.79
2016-08-27T05:20:07.662Z,63.63
2016-08-27T05:21:07.677Z,64.18
2016-08-27T05:22:07.712Z,65.01
2016-08-27T05:23:22.662Z,66.91
2016-08-27T05:24:07.766Z,67.17
2016-08-27T05:25:07.803Z,67.65
2016-08-27T05:26:07.846Z,67.75
2016-08-27T05:28:07.890Z,68.01
2016-08-27T05:29:07.921Z,68.87
2016-08-27T05:30:07.967Z,69.42
2016-08-27T05:31:07.984Z,70.09
2016-08-27T05:32:08.027Z,69.87
2016-08-27T05:33:08.041Z,69.96
2016-08-27T05:34:08.075Z,70.54
2016-08-27T05:35:08.096Z,71.22
2016-08-27T05:36:08.146Z,71.02
2016-08-27T05:37:08.176Z,71.7
2016-08-27T05:38:08.196Z,71.7
2016-08-27T05:39:23.143Z,71.08
2016-08-27T05:40:08.263Z,70.83
2016-08-27T05:41:08.275Z,69.77
2016-08-27T05:42:08.354Z,69.71
2016-08-27T05:43:08.340Z,69.35
2016-08-27T05:44:08.377Z,69.64
2016-08-27T05:45:08.392Z,69.9
2016-08-27T05:46:08.425Z,70.48
2016-08-27T05:47:08.451Z,71.15
2016-08-27T05:48:08.484Z,70.09
2016-08-27T05:49:08.516Z,70.03
2016-08-27T05:50:08.547Z,68.87
2016-08-27T05:51:08.577Z,67.65
2016-08-27T05:52:08.606Z,67.3
2016-08-27T05:53:08.638Z,65.98
2016-08-27T05:54:23.599Z,65.43
2016-08-27T05:55:08.706Z,64.76
2016-08-27T05:56:08.789Z,63.56
2016-08-27T05:57:08.760Z,62.5
2016-08-27T05:58:08.793Z,61.69
2016-08-27T05:59:08.844Z,61.11
2016-08-27T06:00:08.865Z,60.36
2016-08-27T06:01:08.896Z,60.27
2016-08-27T06:02:08.935Z,60.36
2016-08-27T06:03:08.958Z,61.11
2016-08-27T06:04:09.003Z,60.91
2016-08-27T06:05:09.026Z,59.1
2016-08-27T06:06:09.070Z,58.29
2016-08-27T06:07:09.090Z,57.61
2016-08-27T06:08:09.125Z,56.89
2016-08-27T06:09:09.163Z,56.96
2016-08-27T06:10:09.200Z,57.28
2016-08-27T06:11:09.231Z,58.8
2016-08-27T06:12:09.261Z,59.06
2016-08-27T06:13:09.298Z,59.45
2016-08-27T06:14:09.335Z,58.67
2016-08-27T06:15:09.367Z,58.22
2016-08-27T06:16:09.413Z,58.48
2016-08-27T06:17:09.449Z,58.03
2016-08-27T06:18:09.478Z,57.18
2016-08-27T06:19:09.508Z,57.28
2016-08-27T06:20:09.545Z,56.89
2016-08-27T06:21:09.587Z,58.25
2016-08-27T06:22:09.617Z,56.89
2016-08-27T06:23:09.647Z,56.62
2016-08-27T06:24:09.708Z,56.92
2016-08-27T06:25:09.722Z,55.39
2016-08-27T06:26:24.686Z,55.19
2016-08-27T06:27:09.807Z,54.74
2016-08-27T06:28:09.822Z,55.88
2016-08-27T06:29:09.859Z,56.36
2016-08-27T06:30:09.898Z,55.85
2016-08-27T06:31:09.954Z,55.75
2016-08-27T06:32:09.967Z,55.75
2016-08-27T06:33:10.019Z,56.52
2016-08-27T06:34:10.041Z,55.55
2016-08-27T06:35:10.072Z,55.68
2016-08-27T06:36:10.109Z,55.1
2016-08-27T06:37:10.159Z,54.18
2016-08-27T06:38:10.191Z,54.44
2016-08-27T06:39:10.236Z,54.47
2016-08-27T06:40:10.252Z,53.99
2016-08-27T06:41:10.299Z,53.33
2016-08-27T06:42:25.252Z,51.29
2016-08-27T06:43:10.365Z,51.7
2016-08-27T06:44:10.414Z,51.7
2016-08-27T06:45:10.487Z,51.9
2016-08-27T06:46:10.487Z,51.8
2016-08-27T06:48:10.546Z,52.19
2016-08-27T06:49:10.582Z,52.99
2016-08-27T06:50:10.623Z,54.57
2016-08-27T06:51:10.652Z,55.8
2016-08-27T06:52:10.688Z,55.13
2016-08-27T06:53:10.725Z,55.35
2016-08-27T06:54:10.780Z,55.13
2016-08-27T06:55:10.803Z,55.44
2016-08-27T06:56:10.844Z,54.96
2016-08-27T06:57:10.886Z,54.47
2016-08-27T06:58:25.834Z,54.01
2016-08-27T06:59:10.950Z,53.65
2016-08-27T07:00:10.985Z,54.23
2016-08-27T07:01:11.023Z,54.5
2016-08-27T07:02:11.057Z,54.79
2016-08-27T07:03:11.089Z,56.41
2016-08-27T07:04:11.131Z,57.07
2016-08-27T07:05:11.168Z,55.61
2016-08-27T07:06:11.199Z,55.44
2016-08-27T07:07:11.237Z,56.12
2016-08-27T07:08:11.272Z,56.03
2016-08-27T07:09:11.313Z,56.12
2016-08-27T07:10:11.365Z,56.05
2016-08-27T07:11:11.436Z,56.32
2016-08-27T07:12:11.419Z,55.64
2016-08-27T07:13:11.458Z,56.03
2016-08-27T07:14:26.426Z,57.29
2016-08-27T07:15:11.534Z,56.2
2016-08-27T07:16:11.579Z,56.12
2016-08-27T07:17:11.600Z,54.99
2016-08-27T07:19:11.676Z,55.37
2016-08-27T07:20:11.724Z,56.32
2016-08-27T07:21:11.771Z,56.77
2016-08-27T07:22:11.800Z,57.43
2016-08-27T07:23:11.824Z,57.04
2016-08-27T07:24:11.858Z,56.41
2016-08-27T07:25:11.907Z,55.74
2016-08-27T07:26:11.930Z,54.89
2016-08-27T07:27:11.980Z,55.08
2016-08-27T07:28:12.007Z,54.96
2016-08-27T07:29:26.976Z,54.21
2016-08-27T07:30:12.081Z,53.65
2016-08-27T07:31:12.119Z,53.97
2016-08-27T07:32:12.152Z,55.18
2016-08-27T07:33:12.187Z,55.18
2016-08-27T07:34:12.238Z,54.5
2016-08-27T07:35:12.265Z,54.5
2016-08-27T07:36:12.304Z,55.08
2016-08-27T07:37:12.336Z,55.83
2016-08-27T07:38:12.384Z,56.1
2016-08-27T07:39:12.413Z,55.71
2016-08-27T07:40:12.456Z,55.15
2016-08-27T07:41:12.501Z,55.25
2016-08-27T07:42:12.521Z,54.76
2016-08-27T07:43:12.554Z,53.91
2016-08-27T07:44:12.597Z,53.94
2016-08-27T07:47:12.701Z,54.21
2016-08-27T07:48:12.740Z,53.16
2016-08-27T07:50:12.813Z,51.65
2016-08-27T07:51:12.866Z,51.17
2016-08-27T07:52:12.895Z,50.8
2016-08-27T07:53:12.921Z,50.63
2016-08-27T07:54:12.973Z,48.97
2016-08-27T07:55:12.994Z,48.54
2016-08-27T07:56:13.035Z,48.54
2016-08-27T07:57:13.072Z,47.85
2016-08-27T07:58:13.102Z,47.95
2016-08-27T07:59:13.151Z,47.75
2016-08-27T08:00:13.175Z,47.19
2016-08-27T08:01:28.145Z,48.26
2016-08-27T08:02:13.250Z,48.71
2016-08-27T08:03:13.288Z,48.02
2016-08-27T08:04:13.326Z,47.46
2016-08-27T08:05:13.364Z,47.09
2016-08-27T08:06:13.394Z,47.41
2016-08-27T08:07:13.435Z,46.53
2016-08-27T08:08:13.473Z,46.62
2016-08-27T08:09:13.504Z,46.16
2016-08-27T08:10:13.557Z,47.77
2016-08-27T08:11:13.578Z,48.44
2016-08-27T08:12:13.668Z,48.05
2016-08-27T08:14:13.690Z,49.56
2016-08-27T08:15:13.728Z,48.71
2016-08-27T08:16:13.765Z,48.71
2016-08-27T08:17:28.725Z,47.85
2016-08-27T08:18:13.855Z,46.92
2016-08-27T08:19:13.876Z,45.76
2016-08-27T08:20:13.958Z,46.92
2016-08-27T08:22:13.980Z,48.22
2016-08-27T08:23:14.033Z,48.58
2016-08-27T08:24:14.062Z,48
2016-08-27T08:25:14.087Z,49.19
2016-08-27T08:26:14.123Z,49.15
2016-08-27T08:27:14.163Z,49.73
2016-08-27T08:28:14.194Z,50.68
2016-08-27T08:29:14.249Z,50.09
2016-08-27T08:30:14.268Z,49.24
2016-08-27T08:31:14.308Z,49.44
2016-08-27T08:32:14.353Z,49.15
2016-08-27T08:33:29.310Z,48.46
2016-08-27T08:35:14.447Z,47.46
2016-08-27T08:36:14.491Z,47.09
2016-08-27T08:38:14.567Z,46.43
2016-08-27T08:39:14.600Z,46.89
2016-08-27T08:40:14.633Z,48.16
2016-08-27T08:41:14.676Z,49.19
2016-08-27T08:42:14.699Z,48.51
2016-08-27T08:43:14.751Z,48.34
2016-08-27T08:44:14.773Z,48.14
2016-08-27T08:45:14.826Z,47.87
2016-08-27T08:46:14.846Z,48.63
2016-08-27T08:47:14.889Z,48.54
2016-08-27T08:48:14.930Z,48.14
2016-08-27T08:49:29.892Z,48.07
2016-08-27T08:50:14.992Z,47.19
2016-08-27T08:51:15.028Z,47.66
2016-08-27T08:52:15.059Z,47.09
2016-08-27T08:53:15.102Z,46.5
2016-08-27T08:54:15.145Z,46.23
2016-08-27T08:55:15.170Z,47.38
2016-08-27T08:56:15.213Z,47.09
2016-08-27T08:57:15.242Z,45.75
2016-08-27T08:58:15.275Z,44.49
2016-08-27T08:59:15.321Z,44.2
2016-08-27T09:00:15.355Z,44.24
2016-08-27T09:01:15.401Z,43.46
2016-08-27T09:02:15.472Z,43.77
2016-08-27T09:03:15.467Z,42.29
2016-08-27T09:04:30.419Z,41.92
2016-08-27T09:05:15.527Z,41.84
2016-08-27T09:06:15.579Z,42.52
2016-08-27T09:07:15.607Z,42.41
2016-08-27T09:08:15.636Z,42.11
2016-08-27T09:09:15.676Z,41.25
2016-08-27T09:10:15.709Z,41.66
2016-08-27T09:11:15.754Z,40.88
2016-08-27T09:12:15.790Z,41.19
2016-08-27T09:13:15.813Z,39.62
2016-08-27T09:14:15.848Z,40.43
2016-08-27T09:15:15.885Z,40.51
2016-08-27T09:16:15.921Z,40.58
2016-08-27T09:17:15.968Z,41.56
2016-08-27T09:18:16.010Z,40.98
2016-08-27T09:19:16.031Z,41.19
2016-08-27T09:20:16.127Z,41.56
2016-08-27T09:21:16.099Z,41.86
2016-08-27T09:22:16.154Z,42.05
2016-08-27T09:23:16.169Z,42.25
2016-08-27T09:25:16.242Z,42.52
2016-08-27T09:26:16.280Z,42.52
2016-08-27T09:27:16.313Z,43.02
2016-08-27T09:28:16.351Z,42.68
2016-08-27T09:29:16.385Z,44.15
2016-08-27T09:30:16.422Z,42.68
2016-08-27T09:31:16.465Z,41.45
2016-08-27T09:32:16.489Z,42.91
2016-08-27T09:33:16.540Z,42.9
2016-08-27T09:34:16.566Z,41.92
2016-08-27T09:35:16.596Z,42.6
2016-08-27T09:36:31.561Z,43.07
2016-08-27T09:37:16.682Z,42.78
2016-08-27T09:38:16.709Z,42.6
2016-08-27T09:39:16.744Z,42.11
2016-08-27T09:40:16.779Z,40.39
2016-08-27T09:41:16.811Z,40.8
2016-08-27T09:42:16.861Z,40.39
2016-08-27T09:43:16.893Z,39.72
2016-08-27T09:44:16.918Z,40.01
2016-08-27T09:45:16.953Z,40.51
2016-08-27T09:46:16.998Z,39.43
2016-08-27T09:47:17.042Z,39.35
2016-08-27T09:48:17.070Z,39.54
2016-08-27T09:49:17.109Z,38.58
2016-08-27T09:50:17.131Z,38.68
2016-08-27T09:51:17.178Z,37.8
2016-08-27T09:52:32.135Z,38.37
2016-08-27T09:53:17.239Z,38.48
2016-08-27T09:54:17.272Z,38.4
2016-08-27T09:55:17.309Z,36.44
2016-08-27T09:56:17.354Z,37.55
2016-08-27T09:57:17.378Z,37.84
2016-08-27T09:58:17.419Z,36.65
2016-08-27T09:59:17.448Z,37.63
2016-08-27T10:00:17.483Z,38.6
2016-08-27T10:01:17.522Z,38.78
2016-08-27T10:02:17.571Z,38.21
2016-08-27T10:03:17.596Z,37.92
2016-08-27T10:04:17.625Z,39
2016-08-27T10:05:17.665Z,38.98
2016-08-27T10:06:17.702Z,39.06
2016-08-27T10:07:17.733Z,40.37
2016-08-27T10:08:32.693Z,41.52
2016-08-27T10:09:17.819Z,41.92
2016-08-27T10:10:17.838Z,41.33
2016-08-27T10:11:17.885Z,41.15
2016-08-27T10:12:17.907Z,40.78
2016-08-27T10:13:17.962Z,40.88
2016-08-27T10:14:17.977Z,40.86
2016-08-27T10:15:18.026Z,40.78
2016-08-27T10:16:18.067Z,39.72
2016-08-27T10:17:18.090Z,39.74
2016-08-27T10:18:18.168Z,39.35
2016-08-27T10:19:18.158Z,39.15
2016-08-27T10:20:18.189Z,40.63
2016-08-27T10:22:18.321Z,43.09
2016-08-27T10:23:18.300Z,43.56
2016-08-27T10:24:33.256Z,43.56
2016-08-27T10:25:18.379Z,43.73
2016-08-27T10:26:18.405Z,44.69
2016-08-27T10:27:18.440Z,44.57
2016-08-27T10:28:18.475Z,44.59
2016-08-27T10:29:18.522Z,44.71
2016-08-27T10:30:18.537Z,44.62
2016-08-27T10:31:18.576Z,44.79
2016-08-27T10:32:18.625Z,45.86
2016-08-27T10:33:18.661Z,45.06
2016-08-27T10:34:18.683Z,45.55
2016-08-27T10:35:18.732Z,45.94
2016-08-27T10:36:18.749Z,45.75
2016-08-27T10:37:18.782Z,45.75
2016-08-27T10:38:18.821Z,46.23
2016-08-27T10:39:33.786Z,45.65
2016-08-27T10:40:18.907Z,45.94
2016-08-27T10:41:18.926Z,47.02
2016-08-27T10:43:18.993Z,47.48
2016-08-27T10:44:19.033Z,47.36
2016-08-27T10:45:19.069Z,47.75
2016-08-27T10:46:19.111Z,47.46
2016-08-27T10:47:19.149Z,47.56
2016-08-27T10:48:19.170Z,47.66
2016-08-27T10:49:19.198Z,47.66
2016-08-27T10:50:19.232Z,47.75
2016-08-27T10:51:19.267Z,47.63
2016-08-27T10:52:19.302Z,48.24
2016-08-27T10:53:19.357Z,47.53
2016-08-27T10:54:19.388Z,47.95
2016-08-27T10:56:19.450Z,47.09
2016-08-27T10:57:19.470Z,46.89
2016-08-27T10:58:19.514Z,47.09
2016-08-27T10:59:19.548Z,47.48
2016-08-27T11:00:19.572Z,47.09
2016-08-27T11:01:19.605Z,46.7
2016-08-27T11:02:19.643Z,46.82
2016-08-27T11:03:19.679Z,46.89
2016-08-27T11:04:19.727Z,46.89
2016-08-27T11:05:19.746Z,47.27
2016-08-27T11:06:19.788Z,47.73
2016-08-27T11:07:19.815Z,47.73
2016-08-27T11:08:19.849Z,47.46
2016-08-27T11:09:19.891Z,46.7
2016-08-27T11:10:19.916Z,46.14
2016-08-27T11:11:34.876Z,46.92
2016-08-27T11:13:20.026Z,45.94
2016-08-27T11:14:20.049Z,45.84
2016-08-27T11:15:20.085Z,47.14
2016-08-27T11:16:20.118Z,45.86
2016-08-27T11:17:20.159Z,45.97
2016-08-27T11:18:20.190Z,45.86
2016-08-27T11:19:20.218Z,44.38
2016-08-27T11:20:20.266Z,44.57
2016-08-27T11:21:20.283Z,44.1
2016-08-27T11:22:20.432Z,43.71
2016-08-27T11:24:21.082Z,43.62
2016-08-27T11:25:20.419Z,42.95
2016-08-27T11:26:20.504Z,44.13
2016-08-27T11:27:35.408Z,43.63
2016-08-27T11:28:20.526Z,43.84
2016-08-27T11:29:20.560Z,44.71
2016-08-27T11:30:20.584Z,43.54
2016-08-27T11:31:20.616Z,43.84
2016-08-27T11:32:20.654Z,43.91
2016-08-27T11:33:20.694Z,44.3
2016-08-27T11:34:20.725Z,44.62
2016-08-27T11:35:20.767Z,43.63
2016-08-27T11:36:20.785Z,43.15
2016-08-27T11:37:20.826Z,43.17
2016-08-27T11:38:20.855Z,44.05
2016-08-27T11:39:20.886Z,43.88
2016-08-27T11:40:20.930Z,43.09
2016-08-27T11:41:20.962Z,43.19
2016-08-27T11:42:20.982Z,42.8
2016-08-27T11:43:35.943Z,42.6
2016-08-27T11:44:21.068Z,42.97
2016-08-27T11:45:21.087Z,44.42
2016-08-27T11:46:21.116Z,43.73
2016-08-27T11:48:21.185Z,43.23
2016-08-27T11:49:21.217Z,43.23
2016-08-27T11:50:21.252Z,44.2
2016-08-27T11:51:21.296Z,42.56
2016-08-27T11:52:21.320Z,42.46
2016-08-27T11:53:21.353Z,42.46
2016-08-27T11:54:21.395Z,41.58
2016-08-27T11:56:21.457Z,41.02
2016-08-27T11:57:21.485Z,40.84
2016-08-27T11:58:21.536Z,41.31
2016-08-27T11:59:36.477Z,40.72
2016-08-27T12:00:21.603Z,41.7
2016-08-27T12:01:21.622Z,41.21
2016-08-27T12:02:21.655Z,41.41
2016-08-27T12:03:21.687Z,42.29
2016-08-27T12:04:21.719Z,42.09
2016-08-27T12:05:21.748Z,42.09
2016-08-27T12:06:21.796Z,42.8
2016-08-27T12:07:21.815Z,42.21
2016-08-27T12:08:21.849Z,43.19
2016-08-27T12:09:21.886Z,41.92
2016-08-27T12:10:21.921Z,42.5
2016-08-27T12:11:21.958Z,42.6
2016-08-27T12:12:21.996Z,41.92
2016-08-27T12:13:22.016Z,41.23
2016-08-27T12:14:36.979Z,40.64
2016-08-27T12:15:22.089Z,40.84
2016-08-27T12:16:22.120Z,42.88
2016-08-27T12:17:22.160Z,43.66
2016-08-27T12:18:22.195Z,43.84
2016-08-27T12:19:22.223Z,44.4
2016-08-27T12:20:22.268Z,44.57
2016-08-27T12:21:22.289Z,44.96
2016-08-27T12:22:22.378Z,44.77
2016-08-27T12:23:22.356Z,44.59
2016-08-27T12:24:22.403Z,44.67
2016-08-27T12:25:22.474Z,44.59
2016-08-27T12:26:22.460Z,43.44
2016-08-27T12:27:22.484Z,42.85
2016-08-27T12:28:22.519Z,42.09
2016-08-27T12:29:22.565Z,42.38
2016-08-27T12:30:22.640Z,42.88
2016-08-27T12:31:22.614Z,42.58
2016-08-27T12:32:22.653Z,42.8
2016-08-27T12:33:22.691Z,42.41
2016-08-27T12:34:22.721Z,42.58
2016-08-27T12:35:22.756Z,42.97
2016-08-27T12:36:22.784Z,42.48
2016-08-27T12:37:22.843Z,43.44
2016-08-27T12:38:22.849Z,43.84
2016-08-27T12:39:22.887Z,44.32
2016-08-27T12:40:22.929Z,42.56
2016-08-27T12:41:22.955Z,42.36
2016-08-27T12:42:22.993Z,41.88
2016-08-27T12:43:23.018Z,41
2016-08-27T12:44:23.054Z,41.11
2016-08-27T12:45:23.086Z,40.82
2016-08-27T12:46:38.048Z,41.21
2016-08-27T12:47:23.152Z,41.11
2016-08-27T12:49:23.214Z,41.21
2016-08-27T12:50:23.256Z,41.11
2016-08-27T12:51:23.283Z,41.5
2016-08-27T12:52:23.321Z,41.11
2016-08-27T12:53:23.347Z,40.72
2016-08-27T12:54:23.389Z,41.5
2016-08-27T12:55:23.415Z,39.17
2016-08-27T12:56:23.457Z,39.66
2016-08-27T12:57:23.478Z,39.37
2016-08-27T12:58:23.513Z,39.37
2016-08-27T12:59:23.560Z,39.56
2016-08-27T13:00:23.580Z,40.06
2016-08-27T13:01:23.625Z,39.86
2016-08-27T13:02:38.573Z,39.37
2016-08-27T13:03:23.683Z,39.35
2016-08-27T13:04:23.723Z,39.07
2016-08-27T13:05:23.771Z,39.66
2016-08-27T13:06:23.777Z,39.35
2016-08-27T13:07:23.817Z,40.25
2016-08-27T13:08:23.863Z,40.06
2016-08-27T13:09:23.878Z,40.35
2016-08-27T13:10:23.911Z,40.63
2016-08-27T13:11:23.949Z,40.82
2016-08-27T13:12:23.997Z,40.63
2016-08-27T13:13:24.015Z,40.25
2016-08-27T13:14:24.050Z,41.5
2016-08-27T13:15:24.081Z,41.5
2016-08-27T13:16:24.117Z,40.74
2016-08-27T13:17:24.147Z,40.25
2016-08-27T13:18:39.108Z,40.35
2016-08-27T13:20:24.245Z,40.25
2016-08-27T13:21:24.283Z,40.25
2016-08-27T13:22:24.363Z,40.25
2016-08-27T13:23:24.360Z,40.35
2016-08-27T13:24:24.379Z,40.16
2016-08-27T13:25:24.409Z,39.86
2016-08-27T13:26:25.136Z,40.06
2016-08-27T13:27:24.488Z,40.45
2016-08-27T13:28:24.570Z,40.16
2016-08-27T13:29:24.545Z,40.55
2016-08-27T13:32:24.643Z,40.35
2016-08-27T13:33:24.670Z,39.96
2016-08-27T13:34:39.640Z,39.17
2016-08-27T13:36:24.779Z,39.64
2016-08-27T13:37:24.807Z,39.53